sensor_id;sensor_type;location;lat;lon;timestamp;temperature;humidity
15143;DHT22;7672;50.834;6.286;2024-01-15T00:00:58;3.60;99.90
15143;DHT22;7672;50.834;6.286;2024-01-15T00:03:25;3.60;99.90
15143;DHT22;7672;50.834;6.286;2024-01-15T00:05:52;3.60;99.90
15143;DHT22;7672;50.834;6.286;2024-01-15T00:08:19;3.60;99.90
15143;DHT22;7672;50.834;6.286;2024-01-15T00:10:46;3.60;99.90
15143;DHT22;7672;50.834;6.286;2024-01-15T00:13:13;3.60;99.90
15143;DHT22;7672;50.834;6.286;2024-01-15T00:15:39;3.60;99.90
15143;DHT22;7672;50.834;6.286;2024-01-15T00:18:06;3.60;99.90
15143;DHT22;7672;50.834;6.286;2024-01-15T00:20:34;3.60;99.90
15143;DHT22;7672;50.834;6.286;2024-01-15T00:23:01;3.60;99.90
15143;DHT22;7672;50.834;6.286;2024-01-15T00:25:28;3.60;99.90
15143;DHT22;7672;50.834;6.286;2024-01-15T00:27:55;3.70;99.90
15143;DHT22;7672;50.834;6.286;2024-01-15T00:30:22;3.70;99.90
15143;DHT22;7672;50.834;6.286;2024-01-15T00:32:49;3.70;99.90
15143;DHT22;7672;50.834;6.286;2024-01-15T00:35:16;3.70;99.90
15143;DHT22;7672;50.834;6.286;2024-01-15T00:37:43;3.70;99.90
15143;DHT22;7672;50.834;6.286;2024-01-15T00:40:10;3.70;99.90
15143;DHT22;7672;50.834;6.286;2024-01-15T00:42:37;3.70;99.90
15143;DHT22;7672;50.834;6.286;2024-01-15T00:45:04;3.70;99.90
15143;DHT22;7672;50.834;6.286;2024-01-15T00:47:34;3.70;99.90
15143;DHT22;7672;50.834;6.286;2024-01-15T00:50:01;3.70;99.90
15143;DHT22;7672;50.834;6.286;2024-01-15T00:52:28;3.70;99.90
15143;DHT22;7672;50.834;6.286;2024-01-15T00:54:55;3.80;99.90
15143;DHT22;7672;50.834;6.286;2024-01-15T00:57:22;3.80;99.90
15143;DHT22;7672;50.834;6.286;2024-01-15T00:59:49;3.80;99.90
15143;DHT22;7672;50.834;6.286;2024-01-15T01:02:16;3.80;99.90
15143;DHT22;7672;50.834;6.286;2024-01-15T01:04:43;3.80;99.90
15143;DHT22;7672;50.834;6.286;2024-01-15T01:07:10;3.80;99.90
15143;DHT22;7672;50.834;6.286;2024-01-15T01:09:37;3.90;99.90
15143;DHT22;7672;50.834;6.286;2024-01-15T01:12:04;3.80;99.90
15143;DHT22;7672;50.834;6.286;2024-01-15T01:14:31;3.80;99.90
15143;DHT22;7672;50.834;6.286;2024-01-15T01:16:58;3.90;99.90
15143;DHT22;7672;50.834;6.286;2024-01-15T01:19:25;3.90;99.90
15143;DHT22;7672;50.834;6.286;2024-01-15T01:21:52;3.90;99.90
15143;DHT22;7672;50.834;6.286;2024-01-15T01:24:19;3.90;99.90
15143;DHT22;7672;50.834;6.286;2024-01-15T01:26:46;4.10;99.90
15143;DHT22;7672;50.834;6.286;2024-01-15T01:29:13;3.90;99.90
15143;DHT22;7672;50.834;6.286;2024-01-15T01:31:44;3.90;99.90
15143;DHT22;7672;50.834;6.286;2024-01-15T01:34:14;3.90;99.90
15143;DHT22;7672;50.834;6.286;2024-01-15T01:36:42;3.80;99.90
15143;DHT22;7672;50.834;6.286;2024-01-15T01:39:09;3.80;99.90
15143;DHT22;7672;50.834;6.286;2024-01-15T01:41:39;3.80;99.90
15143;DHT22;7672;50.834;6.286;2024-01-15T01:44:06;3.80;99.90
15143;DHT22;7672;50.834;6.286;2024-01-15T01:46:34;3.80;99.90
15143;DHT22;7672;50.834;6.286;2024-01-15T01:49:09;3.80;99.90
15143;DHT22;7672;50.834;6.286;2024-01-15T01:51:38;3.80;99.90
15143;DHT22;7672;50.834;6.286;2024-01-15T01:54:07;3.80;99.90
15143;DHT22;7672;50.834;6.286;2024-01-15T01:56:36;3.80;99.90
15143;DHT22;7672;50.834;6.286;2024-01-15T01:59:04;3.80;99.90
15143;DHT22;7672;50.834;6.286;2024-01-15T02:01:31;3.80;99.90
15143;DHT22;7672;50.834;6.286;2024-01-15T02:03:59;3.80;99.90
15143;DHT22;7672;50.834;6.286;2024-01-15T02:06:27;3.80;99.90
15143;DHT22;7672;50.834;6.286;2024-01-15T02:08:54;3.80;99.90
15143;DHT22;7672;50.834;6.286;2024-01-15T02:11:21;3.80;99.90
15143;DHT22;7672;50.834;6.286;2024-01-15T02:13:48;3.80;99.90
15143;DHT22;7672;50.834;6.286;2024-01-15T02:16:15;3.80;99.90
15143;DHT22;7672;50.834;6.286;2024-01-15T02:18:44;3.80;99.90
15143;DHT22;7672;50.834;6.286;2024-01-15T02:21:11;3.80;99.90
15143;DHT22;7672;50.834;6.286;2024-01-15T02:23:38;3.80;99.90
15143;DHT22;7672;50.834;6.286;2024-01-15T02:26:06;3.80;99.90
15143;DHT22;7672;50.834;6.286;2024-01-15T02:28:34;3.80;99.90
15143;DHT22;7672;50.834;6.286;2024-01-15T02:31:01;3.80;99.90
15143;DHT22;7672;50.834;6.286;2024-01-15T02:33:28;3.80;99.90
15143;DHT22;7672;50.834;6.286;2024-01-15T02:35:55;3.80;99.90
15143;DHT22;7672;50.834;6.286;2024-01-15T02:38:22;3.80;99.90
15143;DHT22;7672;50.834;6.286;2024-01-15T02:40:49;3.80;99.90
15143;DHT22;7672;50.834;6.286;2024-01-15T02:43:16;3.80;99.90
15143;DHT22;7672;50.834;6.286;2024-01-15T02:45:45;3.80;99.90
15143;DHT22;7672;50.834;6.286;2024-01-15T02:48:13;3.90;99.90
15143;DHT22;7672;50.834;6.286;2024-01-15T02:50:40;3.90;99.90
15143;DHT22;7672;50.834;6.286;2024-01-15T02:53:07;3.90;99.90
15143;DHT22;7672;50.834;6.286;2024-01-15T02:55:34;3.90;99.90
15143;DHT22;7672;50.834;6.286;2024-01-15T02:58:01;3.80;99.90
15143;DHT22;7672;50.834;6.286;2024-01-15T03:00:28;3.90;99.90
15143;DHT22;7672;50.834;6.286;2024-01-15T03:02:55;3.80;99.90
15143;DHT22;7672;50.834;6.286;2024-01-15T03:05:22;3.90;99.90
15143;DHT22;7672;50.834;6.286;2024-01-15T03:07:49;3.90;99.90
15143;DHT22;7672;50.834;6.286;2024-01-15T03:10:16;3.90;99.90
15143;DHT22;7672;50.834;6.286;2024-01-15T03:12:43;3.90;99.90
15143;DHT22;7672;50.834;6.286;2024-01-15T03:15:10;3.90;99.90
15143;DHT22;7672;50.834;6.286;2024-01-15T03:17:37;3.90;99.90
15143;DHT22;7672;50.834;6.286;2024-01-15T03:20:04;3.90;99.90
15143;DHT22;7672;50.834;6.286;2024-01-15T03:22:31;4.00;99.90
15143;DHT22;7672;50.834;6.286;2024-01-15T03:24:58;4.00;99.90
15143;DHT22;7672;50.834;6.286;2024-01-15T03:27:25;4.00;99.90
15143;DHT22;7672;50.834;6.286;2024-01-15T03:29:52;4.00;99.90
15143;DHT22;7672;50.834;6.286;2024-01-15T03:32:19;4.00;99.90
15143;DHT22;7672;50.834;6.286;2024-01-15T03:34:46;4.00;99.90
15143;DHT22;7672;50.834;6.286;2024-01-15T03:37:14;4.00;99.90
15143;DHT22;7672;50.834;6.286;2024-01-15T03:39:41;4.00;99.90
15143;DHT22;7672;50.834;6.286;2024-01-15T03:42:08;4.00;99.90
15143;DHT22;7672;50.834;6.286;2024-01-15T03:44:35;4.00;99.90
15143;DHT22;7672;50.834;6.286;2024-01-15T03:47:02;4.00;99.90
15143;DHT22;7672;50.834;6.286;2024-01-15T03:49:29;4.00;99.90
15143;DHT22;7672;50.834;6.286;2024-01-15T03:51:56;4.00;99.90
15143;DHT22;7672;50.834;6.286;2024-01-15T03:54:23;4.00;99.90
15143;DHT22;7672;50.834;6.286;2024-01-15T03:56:50;4.00;99.90
15143;DHT22;7672;50.834;6.286;2024-01-15T03:59:17;4.00;99.90
15143;DHT22;7672;50.834;6.286;2024-01-15T04:01:51;4.00;99.90
15143;DHT22;7672;50.834;6.286;2024-01-15T04:04:18;4.00;99.90
15143;DHT22;7672;50.834;6.286;2024-01-15T04:06:46;4.00;99.90
15143;DHT22;7672;50.834;6.286;2024-01-15T04:09:13;4.00;99.90
15143;DHT22;7672;50.834;6.286;2024-01-15T04:11:41;4.00;99.90
15143;DHT22;7672;50.834;6.286;2024-01-15T04:14:08;4.00;99.90
15143;DHT22;7672;50.834;6.286;2024-01-15T04:17:02;4.00;99.90
15143;DHT22;7672;50.834;6.286;2024-01-15T04:19:43;4.00;99.90
15143;DHT22;7672;50.834;6.286;2024-01-15T04:22:52;4.00;99.90
15143;DHT22;7672;50.834;6.286;2024-01-15T04:25:31;4.00;99.90
15143;DHT22;7672;50.834;6.286;2024-01-15T04:28:28;4.30;99.90
15143;DHT22;7672;50.834;6.286;2024-01-15T04:37:26;4.10;99.90
15143;DHT22;7672;50.834;6.286;2024-01-15T04:41:03;4.00;99.90
15143;DHT22;7672;50.834;6.286;2024-01-15T04:44:43;3.60;99.90
15143;DHT22;7672;50.834;6.286;2024-01-15T04:47:54;4.00;99.90
15143;DHT22;7672;50.834;6.286;2024-01-15T04:50:27;4.60;99.90
15143;DHT22;7672;50.834;6.286;2024-01-15T04:53:03;4.00;99.90
15143;DHT22;7672;50.834;6.286;2024-01-15T04:55:32;4.00;99.90
15143;DHT22;7672;50.834;6.286;2024-01-15T04:57:59;4.00;99.90
15143;DHT22;7672;50.834;6.286;2024-01-15T05:00:30;4.10;99.90
15143;DHT22;7672;50.834;6.286;2024-01-15T05:03:23;4.10;99.90
15143;DHT22;7672;50.834;6.286;2024-01-15T05:06:22;3.90;99.90
15143;DHT22;7672;50.834;6.286;2024-01-15T05:09:37;4.00;99.90
15143;DHT22;7672;50.834;6.286;2024-01-15T05:13:08;4.10;99.90
15143;DHT22;7672;50.834;6.286;2024-01-15T05:53:25;4.00;99.90
15143;DHT22;7672;50.834;6.286;2024-01-15T05:55:53;4.20;99.90
15143;DHT22;7672;50.834;6.286;2024-01-15T05:58:23;4.00;99.90
15143;DHT22;7672;50.834;6.286;2024-01-15T06:00:50;4.10;99.90
15143;DHT22;7672;50.834;6.286;2024-01-15T06:03:17;4.10;99.90
15143;DHT22;7672;50.834;6.286;2024-01-15T06:05:44;4.10;99.90
15143;DHT22;7672;50.834;6.286;2024-01-15T06:08:12;4.10;99.90
15143;DHT22;7672;50.834;6.286;2024-01-15T06:10:41;4.10;99.90
15143;DHT22;7672;50.834;6.286;2024-01-15T06:13:11;4.20;99.90
15143;DHT22;7672;50.834;6.286;2024-01-15T06:15:38;4.70;99.90
15143;DHT22;7672;50.834;6.286;2024-01-15T06:18:05;4.20;99.90
15143;DHT22;7672;50.834;6.286;2024-01-15T06:20:33;4.20;99.90
15143;DHT22;7672;50.834;6.286;2024-01-15T06:23:00;4.80;99.90
15143;DHT22;7672;50.834;6.286;2024-01-15T06:25:29;4.80;99.90
15143;DHT22;7672;50.834;6.286;2024-01-15T06:27:56;4.80;99.90
15143;DHT22;7672;50.834;6.286;2024-01-15T06:35:13;4.30;99.90
15143;DHT22;7672;50.834;6.286;2024-01-15T06:37:45;4.30;99.90
15143;DHT22;7672;50.834;6.286;2024-01-15T06:43:37;4.30;99.90
15143;DHT22;7672;50.834;6.286;2024-01-15T06:46:34;4.30;99.90
15143;DHT22;7672;50.834;6.286;2024-01-15T06:49:21;4.30;99.90
15143;DHT22;7672;50.834;6.286;2024-01-15T06:52:01;4.40;99.90
15143;DHT22;7672;50.834;6.286;2024-01-15T06:54:42;4.70;99.90
15143;DHT22;7672;50.834;6.286;2024-01-15T06:57:19;4.50;99.90
15143;DHT22;7672;50.834;6.286;2024-01-15T07:00:09;4.30;99.90
15143;DHT22;7672;50.834;6.286;2024-01-15T07:02:52;4.30;99.90
15143;DHT22;7672;50.834;6.286;2024-01-15T07:05:30;4.30;99.90
15143;DHT22;7672;50.834;6.286;2024-01-15T07:08:02;4.40;99.90
15143;DHT22;7672;50.834;6.286;2024-01-15T07:10:36;4.30;99.90
15143;DHT22;7672;50.834;6.286;2024-01-15T07:13:09;4.30;99.90
15143;DHT22;7672;50.834;6.286;2024-01-15T07:15:36;4.30;99.90
15143;DHT22;7672;50.834;6.286;2024-01-15T07:18:03;4.30;99.90
15143;DHT22;7672;50.834;6.286;2024-01-15T07:20:30;4.30;99.90
15143;DHT22;7672;50.834;6.286;2024-01-15T07:22:57;4.30;99.90
15143;DHT22;7672;50.834;6.286;2024-01-15T07:25:24;4.30;99.90
15143;DHT22;7672;50.834;6.286;2024-01-15T07:27:52;4.30;99.90
15143;DHT22;7672;50.834;6.286;2024-01-15T07:30:20;4.30;99.90
15143;DHT22;7672;50.834;6.286;2024-01-15T07:32:48;4.40;99.90
15143;DHT22;7672;50.834;6.286;2024-01-15T07:35:16;4.40;99.90
15143;DHT22;7672;50.834;6.286;2024-01-15T07:37:43;4.40;99.90
15143;DHT22;7672;50.834;6.286;2024-01-15T07:40:11;4.30;99.90
15143;DHT22;7672;50.834;6.286;2024-01-15T07:42:38;4.40;99.90
15143;DHT22;7672;50.834;6.286;2024-01-15T07:45:06;4.40;99.90
15143;DHT22;7672;50.834;6.286;2024-01-15T07:47:33;4.30;99.90
15143;DHT22;7672;50.834;6.286;2024-01-15T07:50:00;4.30;99.90
15143;DHT22;7672;50.834;6.286;2024-01-15T07:52:32;4.30;99.90
15143;DHT22;7672;50.834;6.286;2024-01-15T07:54:59;4.40;99.90
15143;DHT22;7672;50.834;6.286;2024-01-15T07:57:30;4.30;99.90
15143;DHT22;7672;50.834;6.286;2024-01-15T07:59:57;4.30;99.90
15143;DHT22;7672;50.834;6.286;2024-01-15T08:02:24;4.40;99.90
15143;DHT22;7672;50.834;6.286;2024-01-15T08:04:51;4.40;99.90
15143;DHT22;7672;50.834;6.286;2024-01-15T08:07:18;4.40;99.90
15143;DHT22;7672;50.834;6.286;2024-01-15T08:09:45;4.40;99.90
15143;DHT22;7672;50.834;6.286;2024-01-15T08:12:14;4.40;99.90
15143;DHT22;7672;50.834;6.286;2024-01-15T08:14:41;4.40;99.90
15143;DHT22;7672;50.834;6.286;2024-01-15T08:17:08;4.40;99.90
15143;DHT22;7672;50.834;6.286;2024-01-15T08:19:35;4.40;99.90
15143;DHT22;7672;50.834;6.286;2024-01-15T08:22:03;4.40;99.90
15143;DHT22;7672;50.834;6.286;2024-01-15T08:24:29;4.40;99.90
15143;DHT22;7672;50.834;6.286;2024-01-15T08:26:56;4.40;99.90
15143;DHT22;7672;50.834;6.286;2024-01-15T08:29:23;4.40;99.90
15143;DHT22;7672;50.834;6.286;2024-01-15T08:31:51;4.50;99.90
15143;DHT22;7672;50.834;6.286;2024-01-15T08:34:19;4.40;99.90
15143;DHT22;7672;50.834;6.286;2024-01-15T08:36:46;4.50;99.90
15143;DHT22;7672;50.834;6.286;2024-01-15T08:39:13;4.50;99.90
15143;DHT22;7672;50.834;6.286;2024-01-15T08:41:40;4.50;99.90
15143;DHT22;7672;50.834;6.286;2024-01-15T08:44:07;4.50;99.90
15143;DHT22;7672;50.834;6.286;2024-01-15T08:46:34;4.50;99.90
15143;DHT22;7672;50.834;6.286;2024-01-15T08:49:01;4.50;99.90
15143;DHT22;7672;50.834;6.286;2024-01-15T08:51:30;4.60;99.90
15143;DHT22;7672;50.834;6.286;2024-01-15T08:53:57;4.70;99.90
15143;DHT22;7672;50.834;6.286;2024-01-15T08:56:25;4.50;99.90
15143;DHT22;7672;50.834;6.286;2024-01-15T08:58:54;4.60;99.90
15143;DHT22;7672;50.834;6.286;2024-01-15T09:01:21;5.20;99.90
15143;DHT22;7672;50.834;6.286;2024-01-15T09:03:48;4.60;99.90
15143;DHT22;7672;50.834;6.286;2024-01-15T09:06:15;4.80;99.90
15143;DHT22;7672;50.834;6.286;2024-01-15T09:08:42;4.50;99.90
15143;DHT22;7672;50.834;6.286;2024-01-15T09:11:09;4.50;99.90
15143;DHT22;7672;50.834;6.286;2024-01-15T09:13:36;4.50;99.90
15143;DHT22;7672;50.834;6.286;2024-01-15T09:16:04;4.50;99.90
15143;DHT22;7672;50.834;6.286;2024-01-15T09:18:31;4.10;99.90
15143;DHT22;7672;50.834;6.286;2024-01-15T09:20:59;4.50;99.90
15143;DHT22;7672;50.834;6.286;2024-01-15T09:23:26;4.50;99.90
15143;DHT22;7672;50.834;6.286;2024-01-15T09:25:55;4.50;99.90
15143;DHT22;7672;50.834;6.286;2024-01-15T09:28:22;4.50;99.90
15143;DHT22;7672;50.834;6.286;2024-01-15T09:30:49;4.50;99.90
15143;DHT22;7672;50.834;6.286;2024-01-15T09:33:17;4.90;99.90
15143;DHT22;7672;50.834;6.286;2024-01-15T09:35:45;4.60;99.90
15143;DHT22;7672;50.834;6.286;2024-01-15T09:38:12;4.70;99.90
15143;DHT22;7672;50.834;6.286;2024-01-15T09:41:04;4.80;99.90
15143;DHT22;7672;50.834;6.286;2024-01-15T10:13:46;4.50;99.90
15143;DHT22;7672;50.834;6.286;2024-01-15T10:21:38;4.50;99.90
15143;DHT22;7672;50.834;6.286;2024-01-15T10:56:14;4.60;99.90
15143;DHT22;7672;50.834;6.286;2024-01-15T11:00:07;4.90;99.90
15143;DHT22;7672;50.834;6.286;2024-01-15T11:02:36;4.60;99.90
15143;DHT22;7672;50.834;6.286;2024-01-15T11:05:04;4.60;99.90
15143;DHT22;7672;50.834;6.286;2024-01-15T11:07:32;4.60;99.90
15143;DHT22;7672;50.834;6.286;2024-01-15T11:09:59;4.70;99.90
15143;DHT22;7672;50.834;6.286;2024-01-15T11:12:31;4.70;99.90
15143;DHT22;7672;50.834;6.286;2024-01-15T11:15:03;4.80;99.90
15143;DHT22;7672;50.834;6.286;2024-01-15T11:17:59;4.80;99.90
15143;DHT22;7672;50.834;6.286;2024-01-15T11:20:27;4.90;99.90
15143;DHT22;7672;50.834;6.286;2024-01-15T11:22:54;4.90;99.90
15143;DHT22;7672;50.834;6.286;2024-01-15T11:25:24;5.00;99.90
15143;DHT22;7672;50.834;6.286;2024-01-15T11:27:51;5.00;99.90
15143;DHT22;7672;50.834;6.286;2024-01-15T11:30:20;5.00;99.90
15143;DHT22;7672;50.834;6.286;2024-01-15T11:32:51;5.00;99.90
15143;DHT22;7672;50.834;6.286;2024-01-15T11:35:18;5.00;99.90
15143;DHT22;7672;50.834;6.286;2024-01-15T11:40:20;5.10;99.90
15143;DHT22;7672;50.834;6.286;2024-01-15T11:42:48;5.10;99.90
15143;DHT22;7672;50.834;6.286;2024-01-15T11:45:19;5.10;99.90
15143;DHT22;7672;50.834;6.286;2024-01-15T11:50:33;5.20;99.90
15143;DHT22;7672;50.834;6.286;2024-01-15T11:53:02;5.20;99.90
15143;DHT22;7672;50.834;6.286;2024-01-15T11:55:39;5.20;99.90
15143;DHT22;7672;50.834;6.286;2024-01-15T11:58:11;5.20;99.90
15143;DHT22;7672;50.834;6.286;2024-01-15T12:00:42;5.20;99.90
15143;DHT22;7672;50.834;6.286;2024-01-15T12:03:10;5.20;99.90
15143;DHT22;7672;50.834;6.286;2024-01-15T12:05:39;5.20;99.90
15143;DHT22;7672;50.834;6.286;2024-01-15T12:08:06;5.30;99.90
15143;DHT22;7672;50.834;6.286;2024-01-15T12:10:38;5.50;99.90
15143;DHT22;7672;50.834;6.286;2024-01-15T12:13:10;5.70;99.90
15143;DHT22;7672;50.834;6.286;2024-01-15T12:15:39;6.00;99.90
15143;DHT22;7672;50.834;6.286;2024-01-15T12:18:09;6.20;99.90
15143;DHT22;7672;50.834;6.286;2024-01-15T12:20:37;6.50;99.90
15143;DHT22;7672;50.834;6.286;2024-01-15T12:23:04;6.60;99.90
15143;DHT22;7672;50.834;6.286;2024-01-15T12:25:35;6.80;99.90
15143;DHT22;7672;50.834;6.286;2024-01-15T12:28:02;6.90;99.90
15143;DHT22;7672;50.834;6.286;2024-01-15T12:30:30;6.90;99.90
15143;DHT22;7672;50.834;6.286;2024-01-15T12:33:04;7.00;99.90
15143;DHT22;7672;50.834;6.286;2024-01-15T12:35:34;7.00;99.90
15143;DHT22;7672;50.834;6.286;2024-01-15T12:38:01;6.90;99.90
15143;DHT22;7672;50.834;6.286;2024-01-15T12:40:33;6.80;99.90
15143;DHT22;7672;50.834;6.286;2024-01-15T12:43:02;6.70;99.90
15143;DHT22;7672;50.834;6.286;2024-01-15T12:45:30;6.60;99.90
15143;DHT22;7672;50.834;6.286;2024-01-15T12:47:58;6.50;99.90
15143;DHT22;7672;50.834;6.286;2024-01-15T12:50:25;6.40;99.90
15143;DHT22;7672;50.834;6.286;2024-01-15T12:52:52;6.30;99.90
15143;DHT22;7672;50.834;6.286;2024-01-15T12:55:20;6.20;99.90
15143;DHT22;7672;50.834;6.286;2024-01-15T12:57:46;6.10;99.90
15143;DHT22;7672;50.834;6.286;2024-01-15T13:00:14;6.00;99.90
15143;DHT22;7672;50.834;6.286;2024-01-15T13:02:45;5.90;99.90
15143;DHT22;7672;50.834;6.286;2024-01-15T13:05:12;5.90;99.90
15143;DHT22;7672;50.834;6.286;2024-01-15T13:07:41;5.80;99.90
15143;DHT22;7672;50.834;6.286;2024-01-15T13:10:09;5.70;99.90
15143;DHT22;7672;50.834;6.286;2024-01-15T13:12:37;5.60;99.90
15143;DHT22;7672;50.834;6.286;2024-01-15T13:15:05;5.60;99.90
15143;DHT22;7672;50.834;6.286;2024-01-15T13:17:32;5.50;99.90
15143;DHT22;7672;50.834;6.286;2024-01-15T13:19:59;5.40;99.90
15143;DHT22;7672;50.834;6.286;2024-01-15T13:22:27;5.40;99.90
15143;DHT22;7672;50.834;6.286;2024-01-15T13:24:58;5.40;99.90
15143;DHT22;7672;50.834;6.286;2024-01-15T13:27:25;5.30;99.90
15143;DHT22;7672;50.834;6.286;2024-01-15T13:29:53;5.30;99.90
15143;DHT22;7672;50.834;6.286;2024-01-15T13:32:24;5.30;99.90
15143;DHT22;7672;50.834;6.286;2024-01-15T13:35:00;5.20;99.90
15143;DHT22;7672;50.834;6.286;2024-01-15T13:37:27;5.20;99.90
15143;DHT22;7672;50.834;6.286;2024-01-15T13:39:54;5.20;99.90
15143;DHT22;7672;50.834;6.286;2024-01-15T13:42:23;5.20;99.90
15143;DHT22;7672;50.834;6.286;2024-01-15T13:44:50;5.20;99.90
15143;DHT22;7672;50.834;6.286;2024-01-15T13:47:17;5.20;99.90
15143;DHT22;7672;50.834;6.286;2024-01-15T13:49:44;5.20;99.90
15143;DHT22;7672;50.834;6.286;2024-01-15T13:52:11;5.10;99.90
15143;DHT22;7672;50.834;6.286;2024-01-15T13:54:40;5.10;99.90
15143;DHT22;7672;50.834;6.286;2024-01-15T13:57:16;5.10;99.90
15143;DHT22;7672;50.834;6.286;2024-01-15T13:59:45;5.40;99.90
15143;DHT22;7672;50.834;6.286;2024-01-15T14:02:12;5.10;99.90
15143;DHT22;7672;50.834;6.286;2024-01-15T14:04:41;5.10;99.90
15143;DHT22;7672;50.834;6.286;2024-01-15T14:07:08;5.10;99.90
15143;DHT22;7672;50.834;6.286;2024-01-15T14:09:35;5.10;99.90
15143;DHT22;7672;50.834;6.286;2024-01-15T14:12:04;5.10;99.90
15143;DHT22;7672;50.834;6.286;2024-01-15T14:14:31;5.00;99.90
15143;DHT22;7672;50.834;6.286;2024-01-15T14:16:58;5.00;99.90
15143;DHT22;7672;50.834;6.286;2024-01-15T14:19:25;5.00;99.90
15143;DHT22;7672;50.834;6.286;2024-01-15T14:21:52;5.00;99.90
15143;DHT22;7672;50.834;6.286;2024-01-15T14:24:19;5.00;99.90
15143;DHT22;7672;50.834;6.286;2024-01-15T14:26:46;5.00;99.90
15143;DHT22;7672;50.834;6.286;2024-01-15T14:29:13;4.90;99.90
15143;DHT22;7672;50.834;6.286;2024-01-15T14:31:40;4.90;99.90
15143;DHT22;7672;50.834;6.286;2024-01-15T14:34:07;4.90;99.90
15143;DHT22;7672;50.834;6.286;2024-01-15T14:36:34;4.90;99.90
15143;DHT22;7672;50.834;6.286;2024-01-15T14:39:02;4.90;99.90
15143;DHT22;7672;50.834;6.286;2024-01-15T14:41:29;4.90;99.90
15143;DHT22;7672;50.834;6.286;2024-01-15T14:43:56;4.90;99.90
15143;DHT22;7672;50.834;6.286;2024-01-15T14:46:24;4.90;99.90
15143;DHT22;7672;50.834;6.286;2024-01-15T14:48:51;4.90;99.90
15143;DHT22;7672;50.834;6.286;2024-01-15T14:51:18;4.90;99.90
15143;DHT22;7672;50.834;6.286;2024-01-15T14:53:45;4.90;99.90
15143;DHT22;7672;50.834;6.286;2024-01-15T14:56:12;4.90;99.90
15143;DHT22;7672;50.834;6.286;2024-01-15T14:58:43;4.90;99.90
15143;DHT22;7672;50.834;6.286;2024-01-15T15:01:11;4.90;99.90
15143;DHT22;7672;50.834;6.286;2024-01-15T15:03:38;4.90;99.90
15143;DHT22;7672;50.834;6.286;2024-01-15T15:06:05;4.90;99.90
15143;DHT22;7672;50.834;6.286;2024-01-15T15:08:36;4.90;99.90
15143;DHT22;7672;50.834;6.286;2024-01-15T15:11:04;4.90;99.90
15143;DHT22;7672;50.834;6.286;2024-01-15T15:13:31;4.80;99.90
15143;DHT22;7672;50.834;6.286;2024-01-15T15:16:11;4.80;99.90
15143;DHT22;7672;50.834;6.286;2024-01-15T15:18:39;4.80;99.90
15143;DHT22;7672;50.834;6.286;2024-01-15T15:21:07;4.80;99.90
15143;DHT22;7672;50.834;6.286;2024-01-15T15:23:35;4.80;99.90
15143;DHT22;7672;50.834;6.286;2024-01-15T15:26:02;4.80;99.90
15143;DHT22;7672;50.834;6.286;2024-01-15T15:28:30;4.80;99.90
15143;DHT22;7672;50.834;6.286;2024-01-15T15:30:57;4.80;99.90
15143;DHT22;7672;50.834;6.286;2024-01-15T15:33:24;4.80;99.90
15143;DHT22;7672;50.834;6.286;2024-01-15T15:35:51;4.70;99.90
15143;DHT22;7672;50.834;6.286;2024-01-15T15:38:19;4.70;99.90
15143;DHT22;7672;50.834;6.286;2024-01-15T15:40:46;4.70;99.90
15143;DHT22;7672;50.834;6.286;2024-01-15T15:43:13;4.70;99.90
15143;DHT22;7672;50.834;6.286;2024-01-15T15:45:40;4.70;99.90
15143;DHT22;7672;50.834;6.286;2024-01-15T15:48:07;4.70;99.90
15143;DHT22;7672;50.834;6.286;2024-01-15T15:50:34;4.60;99.90
15143;DHT22;7672;50.834;6.286;2024-01-15T15:53:03;4.60;99.90
15143;DHT22;7672;50.834;6.286;2024-01-15T15:55:30;4.60;99.90
15143;DHT22;7672;50.834;6.286;2024-01-15T15:57:58;4.50;99.90
15143;DHT22;7672;50.834;6.286;2024-01-15T16:00:25;4.50;99.90
15143;DHT22;7672;50.834;6.286;2024-01-15T16:02:52;4.50;99.90
15143;DHT22;7672;50.834;6.286;2024-01-15T16:05:19;4.40;99.90
15143;DHT22;7672;50.834;6.286;2024-01-15T16:07:46;4.60;99.90
15143;DHT22;7672;50.834;6.286;2024-01-15T16:10:14;4.40;99.90
15143;DHT22;7672;50.834;6.286;2024-01-15T16:12:42;4.40;99.90
15143;DHT22;7672;50.834;6.286;2024-01-15T16:15:20;4.40;99.90
15143;DHT22;7672;50.834;6.286;2024-01-15T16:17:50;4.40;99.90
15143;DHT22;7672;50.834;6.286;2024-01-15T16:20:38;4.40;99.90
15143;DHT22;7672;50.834;6.286;2024-01-15T16:23:25;4.30;99.90
15143;DHT22;7672;50.834;6.286;2024-01-15T16:26:11;4.30;99.90
15143;DHT22;7672;50.834;6.286;2024-01-15T16:28:39;4.30;99.90
15143;DHT22;7672;50.834;6.286;2024-01-15T16:31:06;4.30;99.90
15143;DHT22;7672;50.834;6.286;2024-01-15T16:33:36;4.30;99.90
15143;DHT22;7672;50.834;6.286;2024-01-15T16:36:03;4.30;99.90
15143;DHT22;7672;50.834;6.286;2024-01-15T16:38:30;4.30;99.90
15143;DHT22;7672;50.834;6.286;2024-01-15T16:40:58;4.30;99.90
15143;DHT22;7672;50.834;6.286;2024-01-15T16:43:26;4.30;99.90
15143;DHT22;7672;50.834;6.286;2024-01-15T16:45:53;4.30;99.90
15143;DHT22;7672;50.834;6.286;2024-01-15T16:48:20;4.20;99.90
15143;DHT22;7672;50.834;6.286;2024-01-15T16:50:47;4.20;99.90
15143;DHT22;7672;50.834;6.286;2024-01-15T16:53:14;4.20;99.90
15143;DHT22;7672;50.834;6.286;2024-01-15T16:55:41;4.20;99.90
15143;DHT22;7672;50.834;6.286;2024-01-15T16:58:08;4.20;99.90
15143;DHT22;7672;50.834;6.286;2024-01-15T17:00:35;4.10;99.90
15143;DHT22;7672;50.834;6.286;2024-01-15T17:03:03;4.10;99.90
15143;DHT22;7672;50.834;6.286;2024-01-15T17:05:30;4.10;99.90
15143;DHT22;7672;50.834;6.286;2024-01-15T17:07:58;4.10;99.90
15143;DHT22;7672;50.834;6.286;2024-01-15T17:10:24;4.00;99.90
15143;DHT22;7672;50.834;6.286;2024-01-15T17:12:51;4.00;99.90
15143;DHT22;7672;50.834;6.286;2024-01-15T17:15:18;3.90;99.90
15143;DHT22;7672;50.834;6.286;2024-01-15T17:17:46;3.90;99.90
15143;DHT22;7672;50.834;6.286;2024-01-15T17:20:13;3.80;99.90
15143;DHT22;7672;50.834;6.286;2024-01-15T17:22:40;3.80;99.90
15143;DHT22;7672;50.834;6.286;2024-01-15T17:25:07;3.80;99.90
15143;DHT22;7672;50.834;6.286;2024-01-15T17:27:34;3.70;99.90
15143;DHT22;7672;50.834;6.286;2024-01-15T17:30:01;3.80;99.90
15143;DHT22;7672;50.834;6.286;2024-01-15T17:32:28;3.70;99.90
15143;DHT22;7672;50.834;6.286;2024-01-15T17:34:55;3.70;99.90
15143;DHT22;7672;50.834;6.286;2024-01-15T17:37:22;3.70;99.90
15143;DHT22;7672;50.834;6.286;2024-01-15T17:39:49;3.60;99.90
15143;DHT22;7672;50.834;6.286;2024-01-15T17:42:16;3.60;99.90
15143;DHT22;7672;50.834;6.286;2024-01-15T17:44:43;3.60;99.90
15143;DHT22;7672;50.834;6.286;2024-01-15T17:47:10;3.60;99.90
15143;DHT22;7672;50.834;6.286;2024-01-15T17:49:37;3.60;99.90
15143;DHT22;7672;50.834;6.286;2024-01-15T17:52:05;3.60;99.90
15143;DHT22;7672;50.834;6.286;2024-01-15T17:54:32;3.60;99.90
15143;DHT22;7672;50.834;6.286;2024-01-15T17:56:59;3.70;99.90
15143;DHT22;7672;50.834;6.286;2024-01-15T17:59:26;3.60;99.90
15143;DHT22;7672;50.834;6.286;2024-01-15T18:01:53;3.50;99.90
15143;DHT22;7672;50.834;6.286;2024-01-15T18:04:21;3.50;99.90
15143;DHT22;7672;50.834;6.286;2024-01-15T18:06:49;3.50;99.90
15143;DHT22;7672;50.834;6.286;2024-01-15T18:09:16;3.50;99.90
15143;DHT22;7672;50.834;6.286;2024-01-15T18:11:46;3.50;99.90
15143;DHT22;7672;50.834;6.286;2024-01-15T18:14:13;3.50;99.90
15143;DHT22;7672;50.834;6.286;2024-01-15T18:16:42;3.50;99.90
15143;DHT22;7672;50.834;6.286;2024-01-15T18:19:12;3.50;99.90
15143;DHT22;7672;50.834;6.286;2024-01-15T18:21:39;3.50;99.90
15143;DHT22;7672;50.834;6.286;2024-01-15T18:24:06;3.50;99.90